Time;durP1;ratioP1;P1;durP2;ratioP2;P2;SDS_P1;SDS_P2;PMS_P1;PMS_P2;Temp;Humidity;BMP_temperature;BMP_pressure;BME280_temperature;BME280_humidity;BME280_pressure;Samples;Min_cycle;Max_cycle;Signal;HPM_P1;HPM_P2
2023/07/31 00:02:15;;;;;;;3.63;2.13;;;16.90;99.90;;;16.61;81.86;100409.97;5033113;28;20231;-74
2023/07/31 00:04:48;;;;;;;5.17;2.27;;;16.90;99.90;;;16.57;82.18;100408.72;5032660;28;20651;-74
2023/07/31 00:07:20;;;;;;;5.67;2.40;;;16.90;99.90;;;16.69;82.53;100412.47;5033054;28;20282;-74
2023/07/31 00:09:53;;;;;;;3.57;2.10;;;17.00;99.90;;;16.59;83.00;100404.78;5033217;28;20221;-74
2023/07/31 00:12:25;;;;;;;5.33;2.27;;;16.90;99.90;;;16.68;83.04;100403.50;5034654;28;20214;-74
2023/07/31 00:14:57;;;;;;;4.40;2.30;;;17.00;99.90;;;16.61;83.11;100391.88;5036575;28;20245;-74
2023/07/31 00:17:29;;;;;;;4.10;2.30;;;16.90;99.90;;;16.54;84.00;100391.00;5036587;28;20283;-74
2023/07/31 00:20:02;;;;;;;4.40;2.67;;;16.80;99.90;;;16.63;83.09;100389.81;5036260;28;20234;-74
2023/07/31 00:22:34;;;;;;;3.37;2.27;;;16.90;99.90;;;16.54;83.85;100391.00;5036537;28;20207;-74
2023/07/31 00:25:06;;;;;;;4.57;2.00;;;16.90;99.90;;;16.65;83.58;100390.41;5036424;28;20266;-74
2023/07/31 00:27:39;;;;;;;6.17;2.50;;;16.90;99.90;;;16.72;83.57;100390.41;5036068;28;20607;-75
2023/07/31 00:30:13;;;;;;;3.80;2.47;;;17.00;99.90;;;16.76;84.10;100386.25;5036030;28;20306;-74
2023/07/31 00:32:45;;;;;;;4.20;2.20;;;17.00;99.90;;;16.76;83.69;100388.13;5036359;28;20241;-74
2023/07/31 00:35:18;;;;;;;3.57;2.37;;;17.10;99.90;;;16.79;83.82;100385.00;5036252;28;20237;-74
2023/07/31 00:37:50;;;;;;;5.97;2.37;;;17.10;99.90;;;16.82;83.58;100382.72;5036303;28;20282;-74
2023/07/31 00:40:22;;;;;;;3.47;2.20;;;17.10;99.90;;;16.79;83.26;100371.47;5036194;28;20668;-74
2023/07/31 00:42:54;;;;;;;5.80;2.17;;;17.10;99.90;;;16.69;84.61;100374.63;5035996;28;20292;-74
2023/07/31 00:45:28;;;;;;;6.57;2.67;;;17.00;99.90;;;16.60;84.57;100368.59;5036040;28;20322;-74
2023/07/31 00:48:00;;;;;;;4.87;2.40;;;16.90;99.90;;;16.54;85.03;100372.09;5036035;28;20197;-74
2023/07/31 00:50:34;;;;;;;3.03;2.20;;;16.80;99.90;;;16.62;85.72;100363.81;5035949;28;20229;-74
2023/07/31 00:53:05;;;;;;;6.03;2.33;;;16.90;99.90;;;16.71;85.77;100364.44;5035964;28;20257;-74
2023/07/31 00:55:38;;;;;;;6.03;3.03;;;17.00;99.90;;;16.79;84.93;100363.38;5035817;28;20262;-75
2023/07/31 00:58:10;;;;;;;5.03;2.37;;;17.10;99.90;;;16.70;85.11;100351.97;5035847;28;20219;-74
2023/07/31 01:00:42;;;;;;;4.43;2.23;;;17.10;99.90;;;16.78;85.93;100351.72;5035788;28;20199;-74
2023/07/31 01:03:13;;;;;;;3.63;2.13;;;17.10;99.90;;;16.78;85.80;100342.81;5035750;28;20187;-74
2023/07/31 01:06:06;;;;;;;3.13;2.10;;;17.10;99.90;;;16.80;85.49;100335.31;5035349;28;20737;-74
2023/07/31 01:08:45;;;;;;;4.10;2.00;;;17.10;99.90;;;16.80;84.93;100329.91;5035631;28;20230;-74
2023/07/31 01:11:26;;;;;;;4.90;2.00;;;17.10;99.90;;;16.81;85.01;100323.47;5035533;28;20221;-74
2023/07/31 01:13:59;;;;;;;4.73;2.60;;;17.10;99.90;;;16.75;86.55;100305.38;5035568;28;20277;-74
2023/07/31 01:16:31;;;;;;;3.53;2.33;;;17.00;99.90;;;16.72;85.85;100312.03;5035450;28;20227;-74
2023/07/31 01:19:03;;;;;;;4.03;2.03;;;17.00;99.90;;;16.68;85.66;100306.19;5035870;28;20203;-74
2023/07/31 01:22:11;;;;;;;4.33;2.10;;;16.90;99.90;;;16.45;87.03;100297.69;5035422;28;20257;-74
2023/07/31 01:24:57;;;;;;;4.23;2.07;;;16.70;99.90;;;16.33;88.54;100295.81;5034487;28;20190;-74
2023/07/31 01:27:41;;;;;;;2.50;1.90;;;16.60;99.90;;;16.40;87.29;100288.56;5035000;28;20661;-74
2023/07/31 01:30:23;;;;;;;3.73;2.30;;;16.70;99.90;;;16.35;87.03;100291.88;5034846;28;20720;-74
2023/07/31 01:32:57;;;;;;;5.00;2.23;;;16.70;99.90;;;16.23;89.24;100296.25;5035255;28;20202;-74
2023/07/31 01:35:28;;;;;;;4.60;2.63;;;16.50;99.90;;;16.21;89.30;100296.44;5034828;28;20229;-74
2023/07/31 01:38:00;;;;;;;5.70;2.30;;;16.60;99.90;;;16.15;88.98;100294.56;5035110;28;20294;-74
2023/07/31 01:40:32;;;;;;;3.93;2.10;;;16.50;99.90;;;16.20;87.96;100297.47;5034964;28;20657;-74
2023/07/31 01:43:05;;;;;;;2.63;1.83;;;16.50;99.90;;;16.17;89.32;100297.88;5034795;28;20305;-73
2023/07/31 01:45:37;;;;;;;3.83;1.80;;;16.50;99.90;;;16.16;90.55;100300.81;5034574;28;20632;-75
2023/07/31 01:48:09;;;;;;;4.03;2.10;;;16.50;99.90;;;16.02;91.29;100278.38;5034945;28;20229;-75
2023/07/31 01:50:41;;;;;;;4.43;2.10;;;16.40;99.90;;;15.94;91.07;100269.63;5035597;28;20322;-74
2023/07/31 01:53:13;;;;;;;3.43;1.90;;;16.30;99.90;;;15.93;91.27;100279.59;5034533;28;20241;-74
2023/07/31 01:55:45;;;;;;;3.63;1.90;;;16.30;99.90;;;15.89;92.62;100264.03;5034700;28;20631;-74
2023/07/31 01:58:18;;;;;;;5.13;2.60;;;16.30;99.90;;;15.85;91.79;100262.78;5034757;28;20191;-74
2023/07/31 02:00:50;;;;;;;2.93;1.83;;;16.20;99.90;;;15.87;92.44;100258.00;5034670;28;20191;-75
2023/07/31 02:03:22;;;;;;;3.83;2.00;;;16.20;99.90;;;15.92;92.75;100256.34;5034345;28;20195;-74
2023/07/31 02:05:54;;;;;;;4.03;1.90;;;16.30;99.90;;;15.85;92.56;100260.06;5034229;28;20717;-74
2023/07/31 02:08:28;;;;;;;5.10;1.87;;;16.20;99.90;;;15.71;92.73;100257.38;5034231;28;20194;-73
2023/07/31 02:11:00;;;;;;;5.30;1.97;;;16.10;99.90;;;15.72;93.24;100250.06;5034637;28;20297;-73
2023/07/31 02:13:33;;;;;;;5.50;1.63;;;16.10;99.90;;;15.71;93.00;100254.66;5035098;28;20195;-73
2023/07/31 02:16:05;;;;;;;3.67;2.00;;;16.10;99.90;;;15.80;94.54;100251.75;5034654;28;20223;-73
2023/07/31 02:18:37;;;;;;;4.00;2.00;;;16.10;99.90;;;15.78;93.71;100260.06;5034709;28;20201;-74
2023/07/31 02:21:09;;;;;;;3.83;1.80;;;16.20;99.90;;;15.85;92.71;100260.06;5034622;28;20188;-74
2023/07/31 02:23:41;;;;;;;5.33;2.20;;;16.20;99.90;;;15.80;92.66;100262.53;5037244;28;20227;-73
2023/07/31 02:26:12;;;;;;;3.37;2.03;;;16.20;99.90;;;15.88;93.33;100256.97;5034140;28;20712;-74
2023/07/31 02:28:46;;;;;;;2.10;1.60;;;16.20;99.90;;;15.88;92.00;100256.97;5033871;28;20631;-74
2023/07/31 02:31:17;;;;;;;3.50;1.80;;;16.30;99.90;;;15.87;93.78;100258.81;5034095;28;20249;-74
2023/07/31 02:33:53;;;;;;;3.33;1.90;;;16.30;99.90;;;15.91;94.06;100253.84;5034117;28;20194;-74
2023/07/31 02:36:25;;;;;;;3.13;2.17;;;16.20;99.90;;;15.88;93.61;100249.69;5033980;28;20231;-74
2023/07/31 02:38:57;;;;;;;1.63;1.53;;;16.20;99.90;;;15.77;93.67;100238.66;5033711;28;20660;-74
2023/07/31 02:41:29;;;;;;;2.77;1.53;;;16.10;99.90;;;15.80;93.74;100238.25;5033999;28;20253;-74
2023/07/31 02:44:02;;;;;;;3.30;1.73;;;16.20;99.90;;;15.77;94.05;100233.28;5033638;28;20262;-74
2023/07/31 02:46:34;;;;;;;2.67;1.60;;;16.10;99.90;;;15.80;94.92;100240.94;5033770;28;20313;-74
2023/07/31 02:49:06;;;;;;;4.47;1.60;;;16.20;99.90;;;15.81;95.20;100242.63;5033827;28;20286;-74
2023/07/31 02:51:38;;;;;;;2.53;1.77;;;16.20;99.90;;;15.76;95.04;100235.13;5033755;28;20225;-74
2023/07/31 02:54:10;;;;;;;3.60;1.80;;;16.10;99.90;;;15.69;94.86;100240.53;5033714;28;20261;-74
2023/07/31 02:56:42;;;;;;;3.67;1.67;;;16.10;99.90;;;15.67;96.00;100231.81;5033363;28;20668;-74
2023/07/31 02:59:16;;;;;;;1.90;1.50;;;16.10;99.90;;;15.74;96.11;100226.41;5034410;28;20293;-75
2023/07/31 03:01:48;;;;;;;2.83;1.63;;;16.10;99.90;;;15.75;96.06;100228.09;5033620;28;20290;-75
2023/07/31 03:04:20;;;;;;;4.53;1.50;;;16.10;99.90;;;15.63;96.88;100237.81;5033630;28;20187;-75
2023/07/31 03:06:52;;;;;;;2.97;1.57;;;16.00;99.90;;;15.64;97.29;100237.63;5033544;28;20222;-75
2023/07/31 03:09:24;;;;;;;1.47;1.27;;;16.00;99.90;;;15.56;96.63;100232.41;5033257;28;20712;-75
2023/07/31 03:11:56;;;;;;;3.67;1.47;;;16.00;99.90;;;15.65;97.12;100228.47;5033460;28;20211;-75
2023/07/31 03:14:29;;;;;;;2.33;1.47;;;16.00;99.90;;;15.69;96.78;100228.91;5033372;28;20222;-75
2023/07/31 03:17:03;;;;;;;2.13;1.30;;;16.10;99.90;;;15.66;96.53;100235.53;5033498;28;20187;-75
2023/07/31 03:19:34;;;;;;;1.47;1.37;;;16.00;99.90;;;15.70;96.69;100231.41;5033442;28;20191;-74
2023/07/31 03:22:06;;;;;;;2.40;1.80;;;16.00;99.90;;;15.75;96.12;100232.66;5033143;28;20277;-74
2023/07/31 03:24:38;;;;;;;2.60;1.60;;;16.10;99.90;;;15.73;96.29;100231.00;5033007;28;20289;-75
2023/07/31 03:27:11;;;;;;;2.37;1.40;;;16.10;99.90;;;15.72;96.39;100233.88;5033074;28;20277;-75
2023/07/31 03:29:44;;;;;;;2.93;1.60;;;16.10;99.90;;;15.76;96.92;100237.84;5033013;28;20640;-75
2023/07/31 03:32:16;;;;;;;1.70;1.50;;;16.10;99.90;;;15.80;96.38;100235.56;5033322;28;20238;-75
2023/07/31 03:34:48;;;;;;;1.53;1.40;;;16.10;99.90;;;15.76;97.42;100239.69;5033271;28;20223;-74
2023/07/31 03:37:20;;;;;;;2.67;1.47;;;16.10;99.90;;;15.65;97.07;100244.66;5033347;28;20275;-74
2023/07/31 03:39:52;;;;;;;1.40;1.20;;;16.00;99.90;;;15.69;97.45;100240.53;5033240;28;20218;-74
2023/07/31 03:42:23;;;;;;;3.80;1.63;;;16.00;99.90;;;15.73;96.50;100240.94;5033162;28;20278;-75
2023/07/31 03:44:57;;;;;;;2.40;1.60;;;16.10;99.90;;;15.68;97.06;100244.25;5032863;28;20273;-73
2023/07/31 03:47:29;;;;;;;2.00;1.57;;;16.10;99.90;;;15.76;97.37;100231.59;5036077;28;20618;-75
2023/07/31 03:50:01;;;;;;;3.10;1.43;;;16.20;99.90;;;15.72;96.54;100228.47;5036771;28;20207;-75
2023/07/31 03:52:32;;;;;;;2.50;1.37;;;16.10;99.90;;;15.71;98.00;100238.47;5036937;28;20232;-75
2023/07/31 03:55:04;;;;;;;1.83;1.40;;;16.10;99.90;;;15.68;97.84;100238.84;5036974;28;20313;-75
2023/07/31 03:57:36;;;;;;;1.63;1.30;;;16.00;99.90;;;15.68;97.59;100230.75;5036969;28;20226;-75
2023/07/31 04:00:13;;;;;;;1.80;1.70;;;16.00;99.90;;;15.68;97.49;100233.44;5036960;28;20278;-75
2023/07/31 04:02:45;;;;;;;2.30;1.30;;;16.10;99.90;;;15.65;97.88;100223.06;5036888;28;20214;-75
2023/07/31 04:05:18;;;;;;;2.93;1.67;;;16.00;99.90;;;15.67;97.47;100225.59;5036738;28;20262;-75
2023/07/31 04:07:50;;;;;;;1.67;1.40;;;16.00;99.90;;;15.69;97.33;100229.72;5036775;28;20286;-75
2023/07/31 04:10:22;;;;;;;1.47;1.33;;;16.10;99.90;;;15.67;97.73;100226.41;5036760;28;20245;-75
2023/07/31 04:12:54;;;;;;;2.10;1.20;;;16.00;99.90;;;15.59;97.34;100229.31;5037483;28;20298;-75
2023/07/31 04:15:27;;;;;;;2.30;1.30;;;16.00;99.90;;;15.62;98.04;100220.78;5036575;28;20234;-75
2023/07/31 04:17:59;;;;;;;1.77;1.60;;;16.00;99.90;;;15.67;97.65;100226.41;5036629;28;20218;-75
2023/07/31 04:20:31;;;;;;;2.50;1.53;;;16.10;99.90;;;15.72;96.88;100218.50;5036267;28;20641;-75
2023/07/31 04:23:03;;;;;;;2.20;1.30;;;16.10;99.90;;;15.71;96.13;100221.44;5036521;28;20241;-75
2023/07/31 04:25:35;;;;;;;4.03;1.77;;;16.10;99.90;;;15.63;96.55;100222.47;5036104;28;20314;-75
2023/07/31 04:28:07;;;;;;;1.73;1.60;;;16.00;99.90;;;15.57;97.58;100214.34;5036488;28;20190;-75
2023/07/31 04:30:40;;;;;;;3.00;1.70;;;16.00;99.90;;;15.50;97.76;100214.34;5036396;28;20190;-75
2023/07/31 04:33:12;;;;;;;2.67;1.63;;;15.90;99.90;;;15.46;97.78;100210.38;5036264;28;20242;-75
2023/07/31 04:35:51;;;;;;;1.53;1.43;;;15.90;99.90;;;15.46;97.46;100218.47;5036232;28;20289;-74
2023/07/31 04:38:25;;;;;;;3.20;1.53;;;15.90;99.90;;;15.45;97.30;100207.84;5036228;28;20199;-74
2023/07/31 04:40:56;;;;;;;2.47;1.60;;;15.90;99.90;;;15.42;97.92;100210.97;5036333;28;20202;-74
2023/07/31 04:43:28;;;;;;;2.43;1.80;;;15.90;99.90;;;15.47;98.15;100219.28;5035906;28;20295;-74
2023/07/31 04:46:01;;;;;;;2.83;1.90;;;15.90;99.90;;;15.35;97.03;100216.34;5036070;28;20226;-74
2023/07/31 04:48:33;;;;;;;3.07;1.90;;;15.80;99.90;;;15.34;98.23;100208.47;5036040;28;20191;-74
2023/07/31 04:51:05;;;;;;;1.60;1.50;;;15.70;99.90;;;15.32;98.82;100213.22;5036031;28;20241;-74
2023/07/31 04:53:37;;;;;;;2.50;1.83;;;15.70;99.90;;;15.26;98.55;100212.19;5035945;28;20211;-74
2023/07/31 04:56:09;;;;;;;2.23;1.80;;;15.70;99.90;;;15.27;99.82;100211.16;5035537;28;20234;-74
2023/07/31 04:58:41;;;;;;;1.70;1.60;;;15.70;99.90;;;15.24;99.83;100203.44;5034637;28;20223;-74
2023/07/31 05:01:14;;;;;;;2.17;1.50;;;15.70;99.90;;;15.21;100.00;100203.84;5035837;28;20230;-74
2023/07/31 05:03:46;;;;;;;2.80;1.50;;;15.70;99.90;;;15.16;100.00;100201.78;5035784;28;20187;-74
2023/07/31 05:06:20;;;;;;;2.83;1.70;;;15.60;99.90;;;15.13;100.00;100193.28;5035864;28;20226;-73
2023/07/31 05:08:52;;;;;;;1.60;1.50;;;15.60;99.90;;;15.23;100.00;100201.81;5035870;28;20282;-73
2023/07/31 05:11:24;;;;;;;1.90;1.63;;;15.60;99.90;;;15.21;100.00;100193.06;5036017;28;20229;-73
2023/07/31 05:13:56;;;;;;;2.17;1.70;;;15.70;99.90;;;15.16;100.00;100200.97;5036023;28;20759;-72
2023/07/31 05:16:29;;;;;;;2.83;1.67;;;15.60;99.90;;;15.19;100.00;100197.84;5035958;28;20803;-71
2023/07/31 05:19:01;;;;;;;2.80;1.50;;;15.60;99.90;;;15.15;100.00;100189.34;5039247;28;20198;-73
2023/07/31 05:21:33;;;;;;;1.47;1.37;;;15.60;99.90;;;15.19;100.00;100185.19;5038422;28;20256;-73
2023/07/31 05:24:05;;;;;;;1.60;1.50;;;15.60;99.90;;;15.26;100.00;100189.78;5035437;28;20195;-73
2023/07/31 05:26:37;;;;;;;1.93;1.50;;;15.70;99.90;;;15.21;100.00;100187.69;5035317;28;20237;-73
2023/07/31 05:29:10;;;;;;;2.53;1.47;;;15.60;99.90;;;15.12;100.00;100176.25;5035358;28;20286;-73
2023/07/31 05:31:43;;;;;;;1.73;1.50;;;15.60;99.90;;;15.13;100.00;100180.63;5034972;28;20740;-73
2023/07/31 05:34:15;;;;;;;1.80;1.37;;;15.60;99.90;;;15.19;100.00;100181.66;5034860;28;20677;-74
2023/07/31 05:36:47;;;;;;;1.20;1.10;;;15.60;99.90;;;15.24;100.00;100184.56;5034809;28;20238;-73
2023/07/31 05:39:19;;;;;;;1.40;1.30;;;15.60;99.90;;;15.18;100.00;100177.31;5035150;28;20222;-73
2023/07/31 05:41:51;;;;;;;3.23;1.40;;;15.60;99.90;;;15.23;100.00;100180.25;5035052;28;20241;-73
2023/07/31 05:44:23;;;;;;;1.43;1.33;;;15.60;99.90;;;15.30;100.00;100178.38;5034640;28;20578;-73
2023/07/31 05:46:56;;;;;;;1.70;1.60;;;15.70;99.90;;;15.32;100.00;100173.59;5034989;28;20289;-74
2023/07/31 05:49:28;;;;;;;2.77;1.80;;;15.70;99.90;;;15.33;100.00;100177.97;5034615;28;20707;-73
2023/07/31 05:52:00;;;;;;;1.93;1.73;;;15.70;99.90;;;15.34;100.00;100171.56;5034615;28;20663;-74
2023/07/31 05:54:32;;;;;;;3.80;2.27;;;15.70;99.90;;;15.23;100.00;100166.75;5034722;28;20230;-73
2023/07/31 05:57:04;;;;;;;2.57;2.37;;;15.70;99.90;;;15.23;100.00;100169.44;5034768;28;20273;-73
2023/07/31 05:59:36;;;;;;;3.20;2.90;;;15.60;99.90;;;15.28;100.00;100171.50;5034799;28;20270;-73
2023/07/31 06:02:09;;;;;;;6.10;3.53;;;15.70;99.90;;;15.28;100.00;100172.34;5034686;28;20202;-73
2023/07/31 06:04:41;;;;;;;4.57;3.27;;;15.70;99.90;;;15.33;100.00;100169.88;5034569;28;20249;-73
2023/07/31 06:07:13;;;;;;;4.93;4.00;;;15.80;99.90;;;15.36;100.00;100164.06;5034586;28;20249;-73
2023/07/31 06:09:45;;;;;;;6.30;5.00;;;15.80;99.90;;;15.37;100.00;100164.91;5034169;28;20191;-73
2023/07/31 06:12:18;;;;;;;5.83;5.20;;;15.80;99.90;;;15.38;100.00;100162.00;5034446;28;20211;-73
2023/07/31 06:14:50;;;;;;;7.50;6.00;;;15.80;99.90;;;15.39;100.00;100166.34;5034289;28;20297;-73
2023/07/31 06:17:23;;;;;;;11.40;6.57;;;15.80;99.90;;;15.43;100.00;100162.22;5034410;28;20201;-73
2023/07/31 06:19:57;;;;;;;6.13;5.27;;;15.90;99.90;;;15.45;100.00;100160.13;5034339;28;20195;-74
2023/07/31 06:22:29;;;;;;;8.50;6.80;;;15.90;99.90;;;15.45;100.00;100154.75;5034278;28;20191;-72
2023/07/31 06:25:00;;;;;;;9.47;7.77;;;15.90;99.90;;;15.47;100.00;100154.53;5033891;28;20230;-73
2023/07/31 06:27:32;;;;;;;8.60;7.43;;;15.90;99.90;;;15.52;100.00;100160.16;5034191;28;20277;-73
2023/07/31 06:30:04;;;;;;;11.00;8.47;;;16.00;99.90;;;15.52;100.00;100152.91;5034137;28;20187;-73
2023/07/31 06:32:37;;;;;;;11.87;8.63;;;16.00;99.90;;;15.56;100.00;100154.16;5034128;28;20231;-73
2023/07/31 06:35:10;;;;;;;11.63;8.40;;;16.00;99.90;;;15.54;100.00;100156.25;5033774;28;20263;-73
2023/07/31 06:37:44;;;;;;;14.30;9.40;;;16.00;99.90;;;15.58;100.00;100148.56;5034118;28;20298;-73
2023/07/31 06:40:16;;;;;;;13.87;8.83;;;16.00;99.90;;;15.58;100.00;100149.38;5034096;28;20211;-73
2023/07/31 06:42:48;;;;;;;11.80;8.87;;;16.00;99.90;;;15.60;100.00;100150.03;5033583;28;20633;-73
2023/07/31 06:45:21;;;;;;;15.10;8.77;;;16.00;99.90;;;15.59;100.00;100153.75;5033947;28;20313;-73
2023/07/31 06:47:54;;;;;;;12.23;8.77;;;16.00;99.90;;;15.60;100.00;100149.19;5033868;28;20195;-73
2023/07/31 06:50:27;;;;;;;11.40;8.60;;;16.00;99.90;;;15.61;100.00;100157.09;5033524;28;20242;-73
2023/07/31 06:52:58;;;;;;;11.30;8.97;;;16.10;99.90;;;15.60;100.00;100155.41;5033794;28;20273;-73
2023/07/31 06:55:31;;;;;;;10.83;7.73;;;16.10;99.90;;;15.58;100.00;100159.38;5033661;28;20218;-73
2023/07/31 06:58:03;;;;;;;10.67;7.77;;;16.00;99.90;;;15.58;100.00;100162.88;5033419;28;20716;-73
2023/07/31 07:00:35;;;;;;;9.43;6.97;;;16.00;99.90;;;15.56;100.00;100151.47;5033715;28;20285;-73
2023/07/31 07:03:08;;;;;;;10.07;8.03;;;16.00;99.90;;;15.55;100.00;100152.50;5033658;28;20649;-73
2023/07/31 07:05:40;;;;;;;9.70;7.87;;;16.00;99.90;;;15.53;100.00;100159.97;5033559;28;20309;-72
2023/07/31 07:08:12;;;;;;;12.73;8.07;;;16.00;99.90;;;15.52;100.00;100154.78;5033624;28;20270;-72
2023/07/31 07:10:44;;;;;;;11.50;8.47;;;16.00;99.90;;;15.52;100.00;100158.31;5033286;28;20661;-72
2023/07/31 07:13:18;;;;;;;12.77;8.90;;;16.00;99.90;;;15.53;100.00;100154.59;5033505;28;20248;-72
2023/07/31 07:15:53;;;;;;;12.80;9.60;;;16.00;99.90;;;15.55;100.00;100149.78;5033147;28;20309;-71
2023/07/31 07:18:27;;;;;;;11.17;9.40;;;16.00;99.90;;;15.52;100.00;100152.91;5033490;28;20191;-73
2023/07/31 07:21:02;;;;;;;14.23;10.37;;;16.00;99.90;;;15.57;100.00;100155.00;5033122;28;20237;-73
2023/07/31 07:23:33;;;;;;;14.97;11.27;;;16.00;99.90;;;15.56;100.00;100154.16;5032882;28;20629;-73
2023/07/31 07:26:06;;;;;;;16.73;10.80;;;16.00;99.90;;;15.56;100.00;100150.63;5033325;28;20284;-73
2023/07/31 07:28:38;;;;;;;14.33;11.43;;;16.00;99.90;;;15.59;100.00;100148.34;5033417;28;20286;-73
2023/07/31 07:31:09;;;;;;;13.30;10.93;;;16.00;99.90;;;15.61;100.00;100151.69;5033408;28;20347;-73
2023/07/31 07:33:43;;;;;;;20.63;12.23;;;16.10;99.90;;;15.61;100.00;100157.09;5033247;28;20195;-72
2023/07/31 07:36:15;;;;;;;15.03;12.60;;;16.10;99.90;;;15.63;100.00;100157.69;5033238;28;20655;-73
2023/07/31 07:38:46;;;;;;;23.57;12.53;;;16.10;99.90;;;15.63;100.00;100165.78;5032955;28;20286;-73
2023/07/31 07:41:18;;;;;;;15.73;13.03;;;16.20;99.90;;;15.67;100.00;100161.66;5033440;28;20213;-72
2023/07/31 07:43:51;;;;;;;18.33;13.50;;;16.10;99.90;;;15.68;100.00;100160.59;5033051;28;20310;-73
2023/07/31 07:46:23;;;;;;;23.03;15.50;;;16.20;99.90;;;15.75;100.00;100151.69;5033225;28;20314;-73
2023/07/31 07:48:56;;;;;;;21.37;15.43;;;16.20;99.90;;;15.81;100.00;100156.25;5032904;28;20787;-73
2023/07/31 07:51:30;;;;;;;21.50;14.87;;;16.20;99.90;;;15.86;100.00;100159.13;5033084;28;20202;-73
2023/07/31 07:54:01;;;;;;;19.90;15.40;;;16.30;99.90;;;15.90;100.00;100155.81;5033057;28;20218;-73
2023/07/31 07:56:33;;;;;;;20.23;13.90;;;16.30;99.90;;;15.93;100.00;100155.41;5032953;28;20256;-73
2023/07/31 07:59:05;;;;;;;21.07;14.17;;;16.40;99.90;;;15.97;100.00;100158.50;5033074;28;20230;-73
2023/07/31 08:01:37;;;;;;;20.07;14.70;;;16.40;99.90;;;16.04;100.00;100159.34;5033051;28;20282;-73
2023/07/31 08:04:11;;;;;;;17.60;14.33;;;16.50;99.90;;;16.06;100.00;100157.28;5033020;28;20278;-73
2023/07/31 08:06:43;;;;;;;19.70;13.63;;;16.50;99.90;;;16.06;100.00;100157.28;5032605;28;20316;-74
2023/07/31 08:09:15;;;;;;;21.27;13.53;;;16.60;99.90;;;16.12;100.00;100159.13;5033578;28;20227;-73
2023/07/31 08:11:47;;;;;;;19.47;14.33;;;16.60;99.90;;;16.19;100.00;100155.38;5037708;28;20187;-72
2023/07/31 08:14:19;;;;;;;21.40;14.27;;;16.60;99.90;;;16.26;100.00;100149.97;5043325;28;20210;-72
2023/07/31 08:16:51;;;;;;;17.83;13.57;;;16.70;99.90;;;16.25;100.00;100161.81;5045224;28;20249;-72
2023/07/31 08:19:24;;;;;;;19.70;13.23;;;16.70;99.90;;;16.25;98.93;100151.00;5043436;28;20195;-72
2023/07/31 08:21:57;;;;;;;18.73;12.83;;;16.70;99.90;;;16.30;99.42;100161.19;5042954;28;20195;-72
2023/07/31 08:24:29;;;;;;;16.13;11.73;;;16.70;99.90;;;16.31;100.00;100160.94;5042967;28;20187;-72
2023/07/31 08:27:01;;;;;;;18.20;11.27;;;16.80;99.90;;;16.29;98.65;100163.03;5032904;28;20282;-73
2023/07/31 08:29:33;;;;;;;18.00;11.87;;;16.80;99.90;;;16.31;99.60;100163.66;5032411;28;20679;-73
2023/07/31 08:32:05;;;;;;;17.70;11.10;;;16.80;99.90;;;16.31;98.61;100174.47;5032749;28;20308;-73
2023/07/31 08:34:39;;;;;;;12.87;8.57;;;16.80;99.90;;;16.31;96.87;100158.25;5035565;28;20207;-73
2023/07/31 08:37:11;;;;;;;12.77;9.13;;;16.80;99.90;;;16.36;96.31;100157.63;5036275;28;20183;-73
2023/07/31 08:39:42;;;;;;;15.50;9.33;;;16.80;99.90;;;16.41;97.38;100155.09;5036241;28;20194;-73
2023/07/31 08:42:16;;;;;;;13.93;9.10;;;16.80;99.90;;;16.42;97.28;100156.78;5035754;28;20692;-73
2023/07/31 08:44:49;;;;;;;13.13;8.27;;;16.90;99.90;;;16.42;94.76;100154.91;5036040;28;20310;-73
2023/07/31 08:47:22;;;;;;;15.33;8.80;;;16.90;99.90;;;16.45;94.33;100149.06;5036113;28;20218;-73
2023/07/31 08:49:58;;;;;;;13.30;7.97;;;16.90;99.90;;;16.50;93.23;100149.28;5035947;28;20252;-73
2023/07/31 08:52:31;;;;;;;16.17;7.80;;;17.00;99.90;;;16.51;94.14;100150.91;5036003;28;20191;-73
2023/07/31 08:55:03;;;;;;;9.97;7.60;;;17.00;99.90;;;16.52;94.32;100144.47;5035813;28;20573;-73
2023/07/31 08:57:38;;;;;;;13.43;7.47;;;17.00;99.90;;;16.49;92.85;100150.31;5035853;28;20290;-75
2023/07/31 09:00:11;;;;;;;11.10;7.40;;;17.00;99.90;;;16.50;93.40;100141.16;5035825;28;20273;-75
2023/07/31 09:02:52;;;;;;;13.47;8.70;;;16.90;99.90;;;16.49;93.54;100139.50;5035866;28;20220;-72
2023/07/31 09:05:27;;;;;;;14.27;8.30;;;16.90;99.90;;;16.50;93.15;100133.06;5035411;28;20273;-73
2023/07/31 09:08:01;;;;;;;12.10;7.30;;;17.00;99.90;;;16.54;94.19;100126.16;5035680;28;20191;-73
2023/07/31 09:10:32;;;;;;;11.67;7.37;;;17.00;99.90;;;16.51;91.84;100121.19;5035328;28;20188;-73
2023/07/31 09:13:05;;;;;;;9.57;6.47;;;17.00;99.90;;;16.56;93.04;100123.28;5035631;28;20274;-74
2023/07/31 09:15:37;;;;;;;13.10;8.00;;;17.00;99.90;;;16.57;93.62;100120.38;5035383;28;20254;-74
2023/07/31 09:18:11;;;;;;;10.40;7.40;;;17.00;99.90;;;16.58;94.00;100121.19;5035501;28;20219;-74
2023/07/31 09:20:44;;;;;;;15.57;8.57;;;17.00;99.90;;;16.55;94.83;100127.88;5035511;28;20679;-74
2023/07/31 09:23:18;;;;;;;12.37;7.83;;;17.00;99.90;;;16.56;95.54;100117.88;5035073;28;20616;-73
2023/07/31 09:25:51;;;;;;;19.43;7.90;;;17.00;99.90;;;16.57;95.11;100120.38;5035268;28;20277;-73
2023/07/31 09:28:31;;;;;;;13.27;7.67;;;17.00;99.90;;;16.59;95.83;100121.00;5035334;28;20191;-73
2023/07/31 09:31:03;;;;;;;13.33;7.77;;;17.00;99.90;;;16.64;95.84;100115.75;5035252;28;20202;-73
2023/07/31 09:33:54;;;;;;;10.17;7.07;;;17.10;99.90;;;16.66;95.76;100102.88;5035237;28;20219;-73
2023/07/31 09:36:29;;;;;;;11.17;7.30;;;17.10;99.90;;;16.69;95.14;100102.44;5034989;28;20235;-73
2023/07/31 09:39:04;;;;;;;13.10;6.93;;;17.20;99.90;;;16.73;94.93;100087.47;5035098;28;20198;-73
2023/07/31 09:41:39;;;;;;;9.37;6.33;;;17.20;99.90;;;16.75;94.84;100089.13;5035044;28;20282;-73
2023/07/31 09:44:11;;;;;;;10.10;6.43;;;17.20;99.90;;;16.73;93.71;100097.44;5034238;28;20297;-73
2023/07/31 09:46:43;;;;;;;9.40;6.83;;;17.20;99.90;;;16.76;95.26;100091.59;5034821;28;20219;-73
2023/07/31 09:49:17;;;;;;;8.63;6.10;;;17.20;99.90;;;16.76;95.67;100102.41;5034706;28;20594;-74
2023/07/31 09:51:51;;;;;;;8.63;5.83;;;17.20;99.90;;;16.79;95.16;100090.31;5034933;28;20222;-73
2023/07/31 09:54:22;;;;;;;11.53;5.77;;;17.20;99.90;;;16.72;95.78;100096.59;5034848;28;20195;-73
2023/07/31 09:56:57;;;;;;;10.53;5.43;;;17.20;99.90;;;16.71;96.67;100089.53;5034394;28;20660;-73
2023/07/31 09:59:29;;;;;;;6.40;5.30;;;17.10;99.90;;;16.68;95.72;100079.16;5034368;28;20558;-73
2023/07/31 10:02:01;;;;;;;6.57;4.27;;;17.10;99.90;;;16.67;95.48;100088.31;5034689;28;20563;-73
2023/07/31 10:04:37;;;;;;;5.17;3.97;;;17.10;99.90;;;16.66;95.40;100081.25;5034572;28;20286;-73
2023/07/31 10:07:11;;;;;;;5.27;4.77;;;17.10;99.90;;;16.65;96.20;100079.59;5034596;28;20277;-72
2023/07/31 10:09:43;;;;;;;5.73;4.40;;;17.10;99.90;;;16.67;96.62;100077.53;5034524;28;20285;-73
2023/07/31 10:12:20;;;;;;;5.37;4.27;;;17.10;99.90;;;16.68;97.12;100079.16;5034487;28;20274;-73
2023/07/31 10:14:53;;;;;;;5.30;3.60;;;17.10;99.90;;;16.71;96.79;100080.63;5034186;28;20257;-73
2023/07/31 10:17:27;;;;;;;6.23;4.57;;;17.10;99.90;;;16.73;96.23;100075.81;5034373;28;20195;-73
2023/07/31 10:20:04;;;;;;;3.70;3.40;;;17.20;99.90;;;16.75;96.78;100081.81;5034315;28;20194;-73
2023/07/31 10:22:38;;;;;;;5.93;3.80;;;17.20;99.90;;;16.76;96.41;100083.47;5033938;28;20672;-72
2023/07/31 10:25:13;;;;;;;4.77;3.47;;;17.20;99.90;;;16.81;96.90;100077.44;5033853;28;20233;-73
2023/07/31 10:27:48;;;;;;;4.60;3.60;;;17.20;99.90;;;16.80;97.18;100075.78;5034112;28;20190;-73
2023/07/31 10:30:27;;;;;;;5.63;3.53;;;17.20;99.90;;;16.83;96.45;100080.75;5034174;28;20277;-73
2023/07/31 10:33:00;;;;;;;5.93;3.43;;;17.30;99.90;;;16.85;97.71;100067.84;5033793;28;20657;-73